createdAt,value
2022-12-19T00:01:37.195Z,-2.70
2022-12-19T00:04:08.779Z,-2.70
2022-12-19T00:06:37.680Z,-2.80
2022-12-19T00:09:05.257Z,-2.80
2022-12-19T00:11:32.438Z,-3.00
2022-12-19T00:13:59.659Z,-2.90
2022-12-19T00:16:28.325Z,-2.50
2022-12-19T00:18:56.599Z,-3.00
2022-12-19T00:21:26.267Z,-3.00
2022-12-19T00:23:53.023Z,-2.90
2022-12-19T00:26:27.603Z,-2.90
2022-12-19T00:28:58.210Z,-3.00
2022-12-19T00:31:26.963Z,-3.10
2022-12-19T00:33:53.998Z,-2.90
2022-12-19T00:36:24.759Z,-3.00
2022-12-19T00:38:53.342Z,-3.00
2022-12-19T00:41:22.618Z,-3.00
2022-12-19T00:43:54.795Z,-2.90
2022-12-19T00:46:21.367Z,-3.10
2022-12-19T00:48:48.042Z,-2.90
2022-12-19T00:51:16.944Z,-2.90
2022-12-19T00:53:47.084Z,-3.20
2022-12-19T00:56:17.544Z,-3.20
2022-12-19T00:58:47.044Z,-3.20
2022-12-19T01:01:33.289Z,-2.90
2022-12-19T01:06:47.709Z,-2.90
2022-12-19T01:09:15.383Z,-3.20
2022-12-19T01:12:02.076Z,-3.30
2022-12-19T01:14:28.676Z,-3.10
2022-12-19T01:16:55.397Z,-3.10
2022-12-19T01:19:22.208Z,-3.10
2022-12-19T01:21:48.833Z,-2.80
2022-12-19T01:26:46.399Z,-2.90
2022-12-19T01:29:13.157Z,-2.70
2022-12-19T01:31:39.847Z,-2.90
2022-12-19T01:34:06.762Z,-3.10
2022-12-19T01:36:34.656Z,-2.90
2022-12-19T01:39:05.553Z,-2.90
2022-12-19T01:41:32.238Z,-3.00
2022-12-19T01:44:05.071Z,-3.00
2022-12-19T01:46:44.371Z,-2.90
2022-12-19T01:49:20.307Z,-3.00
2022-12-19T01:54:24.812Z,-3.00
2022-12-19T01:56:55.053Z,-2.90
2022-12-19T01:59:28.033Z,-3.00
2022-12-19T02:02:00.009Z,-2.90
2022-12-19T02:04:32.224Z,-2.80
2022-12-19T02:07:08.162Z,-2.80
2022-12-19T02:09:43.455Z,-2.60
2022-12-19T02:12:10.161Z,-3.10
2022-12-19T02:14:36.991Z,-3.10
2022-12-19T02:17:28.969Z,-3.00
2022-12-19T02:20:15.547Z,-2.90
2022-12-19T02:23:02.162Z,-2.70
2022-12-19T02:25:49.103Z,-2.50
2022-12-19T02:28:57.748Z,-2.80
2022-12-19T02:31:31.216Z,-2.80
2022-12-19T02:34:22.697Z,-2.90
2022-12-19T02:36:55.460Z,-2.80
2022-12-19T02:39:31.843Z,-2.90
2022-12-19T02:42:02.657Z,-2.90
2022-12-19T02:44:33.091Z,-2.80
2022-12-19T02:47:03.345Z,-2.50
2022-12-19T02:49:33.243Z,-2.50
2022-12-19T02:52:19.836Z,-2.50
2022-12-19T02:54:52.519Z,-2.60
2022-12-19T02:57:25.580Z,-1.70
2022-12-19T03:00:06.336Z,-2.70
2022-12-19T03:02:50.486Z,-2.80
2022-12-19T03:05:35.515Z,-2.80
2022-12-19T03:08:11.044Z,-2.70
2022-12-19T03:10:56.446Z,-2.80
2022-12-19T03:13:29.742Z,-2.80
2022-12-19T03:15:58.392Z,-2.60
2022-12-19T03:18:25.580Z,-2.70
2022-12-19T03:21:14.632Z,-3.20
2022-12-19T03:23:41.900Z,-2.30
2022-12-19T03:26:28.195Z,-2.60
2022-12-19T03:29:01.091Z,-2.40
2022-12-19T03:31:31.030Z,-2.60
2022-12-19T03:34:01.108Z,-2.50
2022-12-19T03:36:33.248Z,-2.30
2022-12-19T03:39:03.617Z,-2.60
2022-12-19T03:41:51.424Z,-2.60
2022-12-19T03:44:21.964Z,-2.50
2022-12-19T03:46:58.392Z,-2.50
2022-12-19T03:49:26.471Z,-2.50
2022-12-19T03:52:10.728Z,-2.50
2022-12-19T03:54:41.724Z,-2.40
2022-12-19T03:57:19.369Z,-2.50
2022-12-19T03:59:49.009Z,-2.40
2022-12-19T04:02:18.082Z,-2.10
2022-12-19T04:04:48.087Z,-2.60
2022-12-19T04:07:16.217Z,-2.50
2022-12-19T04:09:44.719Z,-2.50
2022-12-19T04:12:18.376Z,-2.50
2022-12-19T04:14:45.576Z,-2.50
2022-12-19T04:17:25.275Z,-2.50
2022-12-19T04:20:05.190Z,-2.20
2022-12-19T04:22:39.175Z,-2.40
2022-12-19T04:25:09.490Z,-2.40
2022-12-19T04:27:38.755Z,-2.20
2022-12-19T04:30:06.296Z,-2.40
2022-12-19T04:32:36.376Z,-2.40
2022-12-19T04:35:03.454Z,-2.20
2022-12-19T04:37:31.382Z,-2.00
2022-12-19T04:39:58.829Z,-2.30
2022-12-19T04:42:25.601Z,-1.90
2022-12-19T04:44:52.312Z,-2.30
2022-12-19T04:47:19.087Z,-1.90
2022-12-19T04:49:45.728Z,-2.10
2022-12-19T04:52:12.414Z,-2.20
2022-12-19T04:54:39.200Z,-2.20
2022-12-19T04:57:05.878Z,-2.10
2022-12-19T04:59:32.720Z,-2.20
2022-12-19T05:01:59.500Z,-2.00
2022-12-19T05:04:26.651Z,-2.10
2022-12-19T05:06:53.868Z,-2.10
2022-12-19T05:09:20.646Z,-2.00
2022-12-19T05:11:47.340Z,-1.90
2022-12-19T05:14:15.519Z,-2.20
2022-12-19T05:16:42.295Z,-2.10
2022-12-19T05:19:09.024Z,-2.00
2022-12-19T05:21:35.756Z,-2.00
2022-12-19T05:24:03.018Z,-2.00
2022-12-19T05:26:29.684Z,-2.10
2022-12-19T05:28:56.402Z,-1.80
2022-12-19T05:31:23.154Z,-2.10
2022-12-19T05:33:50.191Z,-2.10
2022-12-19T05:36:18.394Z,-1.80
2022-12-19T05:38:45.434Z,-1.90
2022-12-19T05:41:15.043Z,-2.10
2022-12-19T05:43:42.713Z,-1.90
2022-12-19T05:48:37.604Z,-1.90
2022-12-19T05:51:04.700Z,-1.80
2022-12-19T05:53:31.350Z,-1.80
2022-12-19T05:56:08.624Z,-1.60
2022-12-19T05:58:35.965Z,-1.70
2022-12-19T06:01:05.686Z,-1.70
2022-12-19T06:03:32.635Z,-1.70
2022-12-19T06:06:03.917Z,-1.70
2022-12-19T06:08:30.926Z,-1.90
2022-12-19T06:11:00.421Z,-1.80
2022-12-19T06:13:28.197Z,-1.60
2022-12-19T06:15:59.692Z,-1.90
2022-12-19T06:18:27.171Z,-1.90
2022-12-19T06:21:15.838Z,-1.60
2022-12-19T06:23:43.416Z,-1.90
2022-12-19T06:28:46.938Z,-1.80
2022-12-19T06:31:13.769Z,-1.80
2022-12-19T06:33:41.221Z,-1.70
2022-12-19T06:36:13.499Z,-2.00
2022-12-19T06:38:40.292Z,-1.80
2022-12-19T06:41:26.891Z,-1.70
2022-12-19T06:43:53.825Z,-1.90
2022-12-19T06:46:20.962Z,-1.60
2022-12-19T06:48:47.907Z,-1.70
2022-12-19T06:51:14.663Z,-1.40
2022-12-19T06:53:41.433Z,-1.30
2022-12-19T06:56:08.404Z,-1.90
2022-12-19T06:58:35.341Z,-1.60
2022-12-19T07:01:02.145Z,-1.40
2022-12-19T07:03:37.290Z,-1.50
2022-12-19T07:06:05.225Z,-1.50
2022-12-19T07:08:32.016Z,-1.50
2022-12-19T07:10:59.246Z,-1.30
2022-12-19T07:13:27.392Z,-1.60
2022-12-19T07:18:26.320Z,-1.40
2022-12-19T07:20:53.052Z,-1.50
2022-12-19T07:23:22.100Z,-1.40
2022-12-19T07:25:50.737Z,-1.40
2022-12-19T07:28:17.644Z,-1.10
2022-12-19T07:30:44.810Z,-1.50
2022-12-19T07:33:13.553Z,-1.30
2022-12-19T07:35:42.380Z,-1.00
2022-12-19T07:40:36.390Z,-1.20
2022-12-19T07:43:04.525Z,-1.10
2022-12-19T07:45:32.081Z,-0.90
2022-12-19T07:48:03.104Z,-1.20
2022-12-19T07:50:30.238Z,-1.20
2022-12-19T07:52:58.336Z,-1.30
2022-12-19T07:55:26.263Z,-1.20
2022-12-19T07:57:53.778Z,-1.20
2022-12-19T08:00:21.482Z,-0.90
2022-12-19T08:02:48.264Z,-1.20
2022-12-19T08:05:15.183Z,-1.10
2022-12-19T08:07:41.961Z,-1.10
2022-12-19T08:10:11.345Z,-1.00
2022-12-19T08:12:38.414Z,-1.00
2022-12-19T08:15:06.280Z,-1.00
2022-12-19T08:17:34.742Z,-1.00
2022-12-19T08:20:01.547Z,-0.90
2022-12-19T08:22:30.413Z,-0.90
2022-12-19T08:24:57.622Z,-0.60
2022-12-19T08:27:24.756Z,-0.60
2022-12-19T08:29:51.936Z,-0.60
2022-12-19T08:32:21.524Z,-0.50
2022-12-19T08:34:49.075Z,-0.20
2022-12-19T08:37:15.760Z,-0.50
2022-12-19T08:39:42.466Z,-0.40
2022-12-19T08:42:09.085Z,-0.40
2022-12-19T08:44:35.856Z,-0.30
2022-12-19T08:47:02.681Z,0.00
2022-12-19T08:49:29.604Z,0.10
2022-12-19T08:51:56.340Z,-0.20
2022-12-19T08:54:23.058Z,-0.40
2022-12-19T08:56:49.761Z,0.10
2022-12-19T08:59:18.685Z,0.00
2022-12-19T09:01:52.145Z,0.30
2022-12-19T09:05:58.413Z,0.10
2022-12-19T09:07:05.740Z,0.20
2022-12-19T09:09:33.000Z,0.30
2022-12-19T09:11:59.806Z,0.30
2022-12-19T09:14:26.462Z,0.40
2022-12-19T09:16:53.159Z,0.40
2022-12-19T09:19:19.782Z,0.40
2022-12-19T09:21:46.471Z,0.50
2022-12-19T09:24:13.130Z,0.40
2022-12-19T09:26:41.997Z,0.70
2022-12-19T09:29:19.675Z,0.70
2022-12-19T09:31:55.504Z,0.60
2022-12-19T09:34:37.034Z,0.80
2022-12-19T09:37:08.804Z,0.80
2022-12-19T09:39:36.318Z,0.80
2022-12-19T09:42:30.322Z,0.80
2022-12-19T09:45:17.990Z,1.00
2022-12-19T09:47:54.690Z,0.90
2022-12-19T09:50:30.588Z,1.40
2022-12-19T09:53:02.679Z,1.10
2022-12-19T09:55:35.292Z,1.20
2022-12-19T09:58:21.867Z,1.20
2022-12-19T10:00:55.352Z,1.20
2022-12-19T10:03:46.730Z,1.40
2022-12-19T10:07:07.740Z,1.30
2022-12-19T10:10:37.569Z,1.60
2022-12-19T10:12:47.609Z,1.50
2022-12-19T10:15:08.247Z,1.60
2022-12-19T10:17:45.359Z,1.70
2022-12-19T10:20:25.303Z,1.50
2022-12-19T10:23:11.899Z,1.60
2022-12-19T10:26:03.619Z,1.70
2022-12-19T10:29:03.165Z,1.70
2022-12-19T10:31:54.958Z,1.80
2022-12-19T10:34:28.355Z,1.70
2022-12-19T10:37:27.543Z,1.80
2022-12-19T10:40:10.842Z,1.80
2022-12-19T10:42:51.098Z,1.90
2022-12-19T10:45:20.543Z,1.90
2022-12-19T10:47:49.850Z,1.80
2022-12-19T10:50:22.146Z,1.90
2022-12-19T10:52:56.738Z,1.90
2022-12-19T10:55:24.440Z,2.10
2022-12-19T10:57:51.149Z,2.10
2022-12-19T11:00:18.954Z,2.00
2022-12-19T11:02:51.502Z,1.90
2022-12-19T11:05:29.895Z,1.90
2022-12-19T11:08:17.505Z,2.00
2022-12-19T11:12:22.785Z,2.00
2022-12-19T11:18:09.920Z,1.90
2022-12-19T11:21:49.864Z,1.90
2022-12-19T11:29:37.162Z,2.00
2022-12-19T11:29:37.684Z,2.10
2022-12-19T11:29:38.157Z,2.20
2022-12-19T11:30:38.642Z,2.30
2022-12-19T11:34:07.343Z,2.60
2022-12-19T11:36:52.387Z,2.80
2022-12-19T11:39:23.787Z,3.10
2022-12-19T11:41:59.777Z,3.20
2022-12-19T11:45:06.300Z,3.30
2022-12-19T11:47:44.113Z,3.90
2022-12-19T11:50:19.885Z,4.00
2022-12-19T11:53:11.456Z,3.90
2022-12-19T11:56:15.958Z,4.00
2022-12-19T11:58:49.445Z,4.00
2022-12-19T12:01:49.617Z,4.00
2022-12-19T12:04:43.665Z,4.00
2022-12-19T12:07:17.973Z,3.90
2022-12-19T12:16:06.740Z,4.10
2022-12-19T12:24:00.125Z,3.90
2022-12-19T12:27:01.315Z,4.00
2022-12-19T12:31:09.000Z,3.50
2022-12-19T12:31:40.621Z,4.10
2022-12-19T12:31:52.581Z,3.70
2022-12-19T12:32:03.364Z,3.60
2022-12-19T12:35:48.607Z,3.60
2022-12-19T12:38:16.627Z,3.50
2022-12-19T12:41:00.511Z,3.50
2022-12-19T12:44:07.219Z,3.80
2022-12-19T12:46:40.692Z,3.60
2022-12-19T12:49:20.349Z,3.80
2022-12-19T12:51:47.524Z,4.00
2022-12-19T12:54:16.821Z,4.00
2022-12-19T12:56:46.203Z,4.00
2022-12-19T12:59:29.507Z,4.10
2022-12-19T13:02:00.631Z,4.00
2022-12-19T13:04:32.234Z,4.00
2022-12-19T13:07:25.081Z,4.00
2022-12-19T13:10:05.762Z,4.10
2022-12-19T13:12:52.408Z,4.10
2022-12-19T13:15:22.337Z,4.20
2022-12-19T13:17:48.978Z,4.20
2022-12-19T13:20:17.091Z,4.50
2022-12-19T13:23:01.535Z,4.60
2022-12-19T13:25:32.454Z,5.10
2022-12-19T13:28:13.585Z,5.20
2022-12-19T13:31:16.629Z,5.20
2022-12-19T13:33:56.226Z,5.20
2022-12-19T13:39:51.937Z,5.20
2022-12-19T13:39:57.247Z,5.10
2022-12-19T13:42:44.246Z,5.40
2022-12-19T13:45:22.517Z,5.00
2022-12-19T13:47:51.742Z,4.90
2022-12-19T13:50:28.285Z,4.70
2022-12-19T13:52:55.166Z,4.60
2022-12-19T13:55:22.255Z,4.60
2022-12-19T13:57:53.428Z,4.30
2022-12-19T14:00:35.987Z,4.30
2022-12-19T14:03:03.307Z,4.10
2022-12-19T14:06:17.779Z,4.00
2022-12-19T14:08:23.614Z,3.90
2022-12-19T14:11:33.891Z,3.60
2022-12-19T14:14:15.089Z,3.80
2022-12-19T14:16:46.426Z,3.50
2022-12-19T14:19:19.929Z,3.40
2022-12-19T14:22:07.404Z,3.30
2022-12-19T14:24:33.344Z,3.40
2022-12-19T14:28:19.654Z,3.30
2022-12-19T14:30:29.984Z,3.30
2022-12-19T14:33:46.160Z,3.20
2022-12-19T14:36:09.671Z,3.10
2022-12-19T14:39:25.721Z,3.20
2022-12-19T14:42:00.680Z,3.10
2022-12-19T14:53:17.505Z,3.10
2022-12-19T14:54:13.810Z,3.00
2022-12-19T14:54:31.207Z,3.20
2022-12-19T14:54:33.733Z,3.20
2022-12-19T14:59:01.865Z,2.80
2022-12-19T15:01:32.625Z,2.90
2022-12-19T15:04:50.556Z,2.90
2022-12-19T15:07:08.330Z,2.90
2022-12-19T15:11:00.107Z,2.80
2022-12-19T15:14:46.713Z,2.80
2022-12-19T15:15:47.860Z,2.70
2022-12-19T15:18:42.437Z,2.60
2022-12-19T15:21:12.687Z,2.60
2022-12-19T15:23:39.407Z,2.50
2022-12-19T15:26:15.349Z,2.50
2022-12-19T15:28:43.188Z,2.50
2022-12-19T15:31:20.352Z,2.50
2022-12-19T15:34:32.476Z,2.10
2022-12-19T15:36:33.814Z,2.30
2022-12-19T15:39:00.455Z,2.30
2022-12-19T15:41:27.649Z,2.20
2022-12-19T15:44:09.733Z,2.00
2022-12-19T15:46:38.900Z,1.90
2022-12-19T15:49:15.608Z,1.90
2022-12-19T15:51:42.596Z,1.90
2022-12-19T15:54:46.477Z,1.90
2022-12-19T15:56:56.791Z,1.90
2022-12-19T15:59:36.464Z,1.80
2022-12-19T16:02:16.489Z,1.70
2022-12-19T16:04:43.914Z,2.00
2022-12-19T16:07:16.533Z,1.70
2022-12-19T16:09:43.201Z,1.70
2022-12-19T16:12:17.423Z,1.80
2022-12-19T16:14:45.465Z,1.70
2022-12-19T16:17:18.564Z,1.70
2022-12-19T16:19:45.274Z,1.70
2022-12-19T16:22:18.072Z,1.60
2022-12-19T16:24:44.818Z,1.60
2022-12-19T16:27:22.669Z,1.50
2022-12-19T16:29:50.053Z,1.40
2022-12-19T16:32:17.822Z,1.50
2022-12-19T16:34:44.857Z,1.50
2022-12-19T16:37:11.895Z,1.40
2022-12-19T16:39:38.574Z,1.30
2022-12-19T16:42:11.134Z,1.50
2022-12-19T16:44:38.137Z,1.40
2022-12-19T16:47:11.240Z,1.40
2022-12-19T16:49:37.958Z,1.40
2022-12-19T16:52:04.819Z,1.40
2022-12-19T16:54:31.520Z,1.40
2022-12-19T16:56:58.675Z,1.50
2022-12-19T16:59:32.569Z,1.50
2022-12-19T17:02:00.299Z,1.40
2022-12-19T17:04:28.931Z,1.40
2022-12-19T17:06:56.270Z,1.40
2022-12-19T17:09:24.840Z,1.40
2022-12-19T17:11:55.913Z,1.40
2022-12-19T17:14:25.466Z,1.70
2022-12-19T17:16:55.182Z,1.50
2022-12-19T17:19:27.181Z,1.30
2022-12-19T17:21:53.832Z,1.30
2022-12-19T17:24:20.515Z,1.30
2022-12-19T17:26:47.642Z,1.30
2022-12-19T17:29:14.742Z,1.30
2022-12-19T17:31:42.284Z,1.20
2022-12-19T17:34:32.977Z,1.30
2022-12-19T17:37:01.787Z,1.20
2022-12-19T17:39:30.636Z,1.10
2022-12-19T17:42:02.034Z,1.10
2022-12-19T17:44:28.659Z,0.90
2022-12-19T17:46:55.334Z,1.00
2022-12-19T17:49:27.147Z,1.00
2022-12-19T17:51:54.452Z,0.90
2022-12-19T17:54:22.800Z,1.10
2022-12-19T17:56:50.516Z,0.80
2022-12-19T17:59:17.269Z,0.80
2022-12-19T18:04:17.080Z,0.70
2022-12-19T18:06:44.672Z,0.70
2022-12-19T18:09:21.604Z,0.70
2022-12-19T18:11:49.466Z,0.70
2022-12-19T18:14:16.657Z,0.60
2022-12-19T18:16:44.764Z,0.60
2022-12-19T18:19:21.718Z,0.40
2022-12-19T18:21:49.109Z,0.40
2022-12-19T18:24:17.091Z,0.50
2022-12-19T18:26:45.024Z,0.00
2022-12-19T18:29:12.396Z,0.30
2022-12-19T18:31:43.615Z,0.20
2022-12-19T18:34:21.480Z,0.00
2022-12-19T18:39:22.864Z,0.20
2022-12-19T18:41:50.244Z,0.20
2022-12-19T18:44:17.521Z,0.30
2022-12-19T18:46:45.220Z,0.30
2022-12-19T18:49:14.778Z,0.20
2022-12-19T18:51:42.277Z,0.30
2022-12-19T18:54:19.803Z,0.10
2022-12-19T18:56:46.705Z,0.00
2022-12-19T18:59:13.573Z,0.00
2022-12-19T19:01:44.206Z,-0.10
2022-12-19T19:04:13.117Z,-0.30
2022-12-19T19:06:46.662Z,-0.20
2022-12-19T19:09:18.416Z,-0.30
2022-12-19T19:11:45.445Z,-0.40
2022-12-19T19:14:12.145Z,-0.50
2022-12-19T19:16:39.917Z,-0.50
2022-12-19T19:19:10.516Z,-0.50
2022-12-19T19:21:38.770Z,-0.60
2022-12-19T19:24:12.252Z,-0.60
2022-12-19T19:26:38.836Z,-0.60
2022-12-19T19:29:05.564Z,-0.50
2022-12-19T19:31:36.451Z,-0.50
2022-12-19T19:34:11.885Z,-0.50
2022-12-19T19:36:41.694Z,-0.40
2022-12-19T19:39:08.472Z,-0.20
2022-12-19T19:41:35.182Z,-0.50
2022-12-19T19:44:02.107Z,-0.50
2022-12-19T19:46:29.120Z,-0.50
2022-12-19T19:48:56.570Z,-0.50
2022-12-19T19:51:23.329Z,-0.70
2022-12-19T19:53:50.813Z,-0.50
2022-12-19T19:56:17.506Z,-0.70
2022-12-19T19:58:44.557Z,-0.60
2022-12-19T20:01:11.806Z,-0.70
2022-12-19T20:03:40.368Z,-0.60
2022-12-19T20:06:07.733Z,-0.70
2022-12-19T20:11:09.015Z,-0.80
2022-12-19T20:13:35.920Z,-0.50
2022-12-19T20:16:04.667Z,-0.70
2022-12-19T20:18:31.436Z,-0.80
2022-12-19T20:20:58.163Z,-0.80
2022-12-19T20:23:25.340Z,-0.90
2022-12-19T20:25:52.030Z,-0.80
2022-12-19T20:28:18.939Z,-0.60
2022-12-19T20:30:45.665Z,-0.70
2022-12-19T20:35:39.497Z,-0.90
2022-12-19T20:38:06.442Z,-0.70
2022-12-19T20:40:33.132Z,-0.80
2022-12-19T20:42:59.732Z,-0.80
2022-12-19T20:45:26.415Z,-0.80
2022-12-19T20:47:53.124Z,-0.60
2022-12-19T20:50:19.815Z,-0.80
2022-12-19T20:52:46.630Z,-0.70
2022-12-19T20:55:13.327Z,-0.70
2022-12-19T20:57:40.034Z,-0.80
2022-12-19T21:00:08.165Z,-0.80
2022-12-19T21:02:59.976Z,-0.50
2022-12-19T21:05:21.572Z,-0.70
2022-12-19T21:07:48.256Z,-0.40
2022-12-19T21:10:14.999Z,-0.80
2022-12-19T21:12:47.320Z,-0.80
2022-12-19T21:15:14.760Z,-0.80
2022-12-19T21:17:41.463Z,-0.80
2022-12-19T21:20:08.473Z,-0.90
2022-12-19T21:22:35.143Z,-0.90
2022-12-19T21:25:01.931Z,-0.70
2022-12-19T21:27:28.555Z,-0.90
2022-12-19T21:29:55.236Z,-1.00
2022-12-19T21:32:22.155Z,-1.10
2022-12-19T21:34:48.818Z,-0.90
2022-12-19T21:37:15.508Z,-0.90
2022-12-19T21:39:42.151Z,-0.80
2022-12-19T21:42:08.763Z,-0.90
2022-12-19T21:44:35.450Z,-1.00
2022-12-19T21:47:02.253Z,-1.10
2022-12-19T21:49:28.904Z,-1.00
2022-12-19T21:51:55.552Z,-1.10
2022-12-19T21:54:22.197Z,-1.10
2022-12-19T21:56:48.832Z,-1.10
2022-12-19T21:59:17.031Z,-1.20
2022-12-19T22:01:44.758Z,-1.30
2022-12-19T22:04:14.701Z,-1.30
2022-12-19T22:06:41.521Z,-1.40
2022-12-19T22:09:12.109Z,-1.30
2022-12-19T22:11:38.671Z,-1.20
2022-12-19T22:14:06.296Z,-1.30
2022-12-19T22:16:34.593Z,-1.40
2022-12-19T22:19:02.080Z,-1.40
2022-12-19T22:21:28.968Z,-1.30
2022-12-19T22:23:59.791Z,-1.30
2022-12-19T22:26:28.411Z,-1.40
2022-12-19T22:28:56.623Z,-1.40
2022-12-19T22:31:29.917Z,-1.40
2022-12-19T22:33:59.606Z,-1.50
2022-12-19T22:36:28.953Z,-1.50
2022-12-19T22:38:57.000Z,-1.10
2022-12-19T22:41:24.389Z,-1.10
2022-12-19T22:43:51.285Z,-1.40
2022-12-19T22:46:26.116Z,-1.40
2022-12-19T22:48:55.525Z,-1.30
2022-12-19T22:51:22.477Z,-1.30
2022-12-19T22:53:49.289Z,-1.30
2022-12-19T22:56:19.071Z,-1.10
2022-12-19T22:58:50.400Z,-1.40
2022-12-19T23:01:22.293Z,-1.10
2022-12-19T23:03:51.503Z,-1.60
2022-12-19T23:06:19.338Z,-1.00
2022-12-19T23:08:46.800Z,-1.30
2022-12-19T23:11:19.833Z,-1.30
2022-12-19T23:13:48.121Z,-1.20
2022-12-19T23:16:15.218Z,-1.10
2022-12-19T23:18:42.275Z,-1.10
2022-12-19T23:21:10.270Z,-0.70
2022-12-19T23:23:39.858Z,-0.90
2022-12-19T23:26:14.995Z,-0.90
2022-12-19T23:28:42.971Z,-0.60
2022-12-19T23:31:11.806Z,-0.60
2022-12-19T23:36:06.616Z,-0.50
2022-12-19T23:38:34.082Z,-0.50
2022-12-19T23:41:02.717Z,-0.50
2022-12-19T23:43:31.175Z,-0.20
2022-12-19T23:45:58.190Z,-0.40
2022-12-19T23:48:25.826Z,-0.20
2022-12-19T23:51:11.552Z,-0.30
2022-12-19T23:53:38.278Z,-0.20
2022-12-19T23:56:09.898Z,0.10
2022-12-19T23:58:36.557Z,-0.10
